QFA453 YSSY-YMML
Flight info
| Callsign | QFA453 |
|---|---|
| Flight time | 1h 9m |
| Altitude | 32000 |
| Route | WOL H65 LEECE Q29 ML |
| Aircraft | B738/M-SDE2E3FGHIRWXY/LB1 |
Departure
| Time | 2026-04-20 05:26 |
|---|---|
| Airport | Sydney Kingsford Smith International Airport (YSSY) |
Arrival
| Time | 2026-04-20 06:35 |
|---|---|
| Airport | Melbourne Airport (YMML) |
| Time | Latitude | Longitude | Altitude | Speed | Heading |
|---|---|---|---|---|---|
| 2026-04-20 04:53 | -33.93161 | 151.17968 | 29 ft | 0 kts | 191° |
| 2026-04-20 05:16 | -33.93149 | 151.17971 | 29 ft | 4 kts | 186° |
| 2026-04-20 05:16 | -33.93124 | 151.17967 | 29 ft | 4 kts | 165° |
| 2026-04-20 05:17 | -33.93100 | 151.17966 | 29 ft | 4 kts | 216° |
| 2026-04-20 05:17 | -33.93090 | 151.17989 | 29 ft | 4 kts | 273° |
| 2026-04-20 05:17 | -33.93091 | 151.18003 | 29 ft | 0 kts | 279° |
| 2026-04-20 05:22 | -33.93090 | 151.17991 | 29 ft | 3 kts | 279° |
| 2026-04-20 05:22 | -33.93083 | 151.17944 | 29 ft | 8 kts | 279° |
| 2026-04-20 05:22 | -33.93071 | 151.17861 | 29 ft | 12 kts | 280° |
| 2026-04-20 05:22 | -33.93054 | 151.17761 | 29 ft | 12 kts | 288° |
| 2026-04-20 05:23 | -33.93019 | 151.17668 | 29 ft | 12 kts | 290° |
| 2026-04-20 05:23 | -33.93001 | 151.17572 | 29 ft | 12 kts | 279° |
| 2026-04-20 05:23 | -33.92987 | 151.17477 | 29 ft | 11 kts | 281° |
| 2026-04-20 05:23 | -33.92971 | 151.17385 | 29 ft | 11 kts | 281° |
| 2026-04-20 05:24 | -33.92962 | 151.17328 | 30 ft | 1 kts | 281° |
| 2026-04-20 05:24 | -33.92960 | 151.17318 | 30 ft | 1 kts | 281° |
| 2026-04-20 05:24 | -33.92956 | 151.17287 | 30 ft | 7 kts | 278° |
| 2026-04-20 05:24 | -33.92978 | 151.17204 | 29 ft | 13 kts | 223° |
| 2026-04-20 05:25 | -33.93079 | 151.17196 | 29 ft | 22 kts | 168° |
| 2026-04-20 05:25 | -33.93448 | 151.17292 | 30 ft | 87 kts | 168° |
| 2026-04-20 05:25 | -33.94223 | 151.17492 | 31 ft | 138 kts | 168° |
| 2026-04-20 05:25 | -33.95230 | 151.17769 | 431 ft | 150 kts | 167° |
| 2026-04-20 05:26 | -33.96237 | 151.18010 | 1127 ft | 151 kts | 175° |
| 2026-04-20 05:26 | -33.97321 | 151.18009 | 1591 ft | 165 kts | 181° |
| 2026-04-20 05:26 | -33.98510 | 151.17962 | 2037 ft | 176 kts | 182° |
| 2026-04-20 05:26 | -33.99788 | 151.17865 | 2353 ft | 190 kts | 183° |
| 2026-04-20 05:27 | -34.01134 | 151.17736 | 2700 ft | 198 kts | 183° |
| 2026-04-20 05:27 | -34.02556 | 151.17651 | 2951 ft | 210 kts | 176° |
| 2026-04-20 05:27 | -34.03989 | 151.17963 | 3347 ft | 215 kts | 165° |
| 2026-04-20 05:27 | -34.05453 | 151.18473 | 3799 ft | 219 kts | 166° |
| 2026-04-20 05:28 | -34.06932 | 151.18962 | 4333 ft | 221 kts | 166° |
| 2026-04-20 05:28 | -34.08433 | 151.19439 | 4839 ft | 224 kts | 166° |
| 2026-04-20 05:28 | -34.09943 | 151.19932 | 5397 ft | 225 kts | 166° |
| 2026-04-20 05:28 | -34.11524 | 151.20454 | 5660 ft | 245 kts | 166° |
| 2026-04-20 05:29 | -34.13187 | 151.21005 | 6250 ft | 250 kts | 166° |
| 2026-04-20 05:29 | -34.14869 | 151.21566 | 6952 ft | 252 kts | 166° |
| 2026-04-20 05:29 | -34.16581 | 151.22137 | 7577 ft | 257 kts | 166° |
| 2026-04-20 05:29 | -34.18322 | 151.22636 | 8311 ft | 257 kts | 176° |
| 2026-04-20 05:30 | -34.20081 | 151.22308 | 9007 ft | 260 kts | 200° |
| 2026-04-20 05:30 | -34.21654 | 151.21170 | 9638 ft | 270 kts | 219° |
| 2026-04-20 05:30 | -34.22934 | 151.19529 | 10359 ft | 275 kts | 225° |
| 2026-04-20 05:30 | -34.24218 | 151.17698 | 10641 ft | 293 kts | 227° |
| 2026-04-20 05:31 | -34.25550 | 151.15787 | 11229 ft | 299 kts | 227° |
| 2026-04-20 05:31 | -34.26903 | 151.13848 | 11892 ft | 303 kts | 226° |
| 2026-04-20 05:31 | -34.28282 | 151.11891 | 12578 ft | 307 kts | 226° |
| 2026-04-20 05:31 | -34.29679 | 151.09916 | 13320 ft | 310 kts | 226° |
| 2026-04-20 05:32 | -34.31093 | 151.07919 | 14060 ft | 314 kts | 226° |
| 2026-04-20 05:32 | -34.32505 | 151.05927 | 14723 ft | 317 kts | 226° |
| 2026-04-20 05:32 | -34.33947 | 151.03893 | 15424 ft | 319 kts | 226° |
| 2026-04-20 05:32 | -34.35409 | 151.01829 | 16105 ft | 323 kts | 226° |
| 2026-04-20 05:33 | -34.36835 | 150.99817 | 16775 ft | 326 kts | 226° |
| 2026-04-20 05:33 | -34.38410 | 150.97804 | 17202 ft | 337 kts | 221° |
| 2026-04-20 05:33 | -34.40206 | 150.95850 | 17338 ft | 356 kts | 219° |
| 2026-04-20 05:33 | -34.42132 | 150.93836 | 17535 ft | 372 kts | 219° |
| 2026-04-20 05:34 | -34.44088 | 150.91781 | 18014 ft | 378 kts | 219° |
| 2026-04-20 05:34 | -34.46078 | 150.89661 | 18659 ft | 381 kts | 219° |
| 2026-04-20 05:34 | -34.50045 | 150.85370 | 19832 ft | 384 kts | 219° |
| 2026-04-20 05:35 | -34.52046 | 150.83194 | 20386 ft | 386 kts | 219° |
| 2026-04-20 05:35 | -34.54024 | 150.81039 | 20913 ft | 389 kts | 219° |
| 2026-04-20 05:35 | -34.56029 | 150.78797 | 21441 ft | 392 kts | 224° |
| 2026-04-20 05:35 | -34.57769 | 150.76214 | 21952 ft | 397 kts | 230° |
| 2026-04-20 05:36 | -34.59397 | 150.73481 | 22454 ft | 400 kts | 231° |
| 2026-04-20 05:36 | -34.61005 | 150.70717 | 22923 ft | 403 kts | 231° |
| 2026-04-20 05:36 | -34.62631 | 150.67923 | 23408 ft | 406 kts | 231° |
| 2026-04-20 05:36 | -34.64275 | 150.65122 | 23879 ft | 408 kts | 231° |
| 2026-04-20 05:37 | -34.65920 | 150.62344 | 24270 ft | 410 kts | 230° |
| 2026-04-20 05:37 | -34.67598 | 150.59531 | 24681 ft | 411 kts | 230° |
| 2026-04-20 05:37 | -34.69284 | 150.56711 | 25080 ft | 413 kts | 230° |
| 2026-04-20 05:37 | -34.70986 | 150.53872 | 25467 ft | 415 kts | 230° |
| 2026-04-20 05:38 | -34.72689 | 150.51030 | 25849 ft | 417 kts | 230° |
| 2026-04-20 05:38 | -34.74404 | 150.48168 | 26221 ft | 419 kts | 230° |
| 2026-04-20 05:38 | -34.76107 | 150.45322 | 26521 ft | 422 kts | 230° |
| 2026-04-20 05:38 | -34.77868 | 150.42378 | 26785 ft | 426 kts | 230° |
| 2026-04-20 05:39 | -34.79591 | 150.39495 | 27198 ft | 426 kts | 230° |
| 2026-04-20 05:39 | -34.81332 | 150.36576 | 27571 ft | 427 kts | 230° |
| 2026-04-20 05:39 | -34.83081 | 150.33645 | 27887 ft | 429 kts | 230° |
| 2026-04-20 05:39 | -34.84836 | 150.30699 | 28302 ft | 429 kts | 230° |
| 2026-04-20 05:40 | -34.86582 | 150.27767 | 28861 ft | 425 kts | 229° |
| 2026-04-20 05:40 | -34.88314 | 150.24864 | 29344 ft | 422 kts | 229° |
| 2026-04-20 05:40 | -34.90039 | 150.21959 | 29787 ft | 422 kts | 229° |
| 2026-04-20 05:40 | -34.91737 | 150.19094 | 30219 ft | 421 kts | 229° |
| 2026-04-20 05:41 | -34.93453 | 150.16199 | 30617 ft | 420 kts | 229° |
| 2026-04-20 05:41 | -34.94586 | 150.14288 | 30846 ft | 420 kts | 229° |
| 2026-04-20 05:41 | -34.96858 | 150.10455 | 31312 ft | 419 kts | 229° |
| 2026-04-20 05:41 | -34.98568 | 150.07567 | 31673 ft | 418 kts | 229° |
| 2026-04-20 05:42 | -34.99698 | 150.05657 | 31914 ft | 417 kts | 229° |
| 2026-04-20 05:42 | -35.01386 | 150.02803 | 32267 ft | 415 kts | 229° |
| 2026-04-20 05:42 | -35.05271 | 149.96223 | 32292 ft | 417 kts | 229° |
| 2026-04-20 05:43 | -35.08109 | 149.91416 | 32292 ft | 416 kts | 229° |
| 2026-04-20 05:43 | -35.11467 | 149.85725 | 32280 ft | 415 kts | 229° |
| 2026-04-20 05:44 | -35.14840 | 149.79998 | 32302 ft | 415 kts | 229° |
| 2026-04-20 05:44 | -35.18213 | 149.74263 | 32294 ft | 415 kts | 229° |
| 2026-04-20 05:45 | -35.21584 | 149.68520 | 32295 ft | 415 kts | 229° |
| 2026-04-20 05:45 | -35.24930 | 149.62809 | 32285 ft | 415 kts | 229° |
| 2026-04-20 05:46 | -35.28308 | 149.57035 | 32279 ft | 415 kts | 229° |
| 2026-04-20 05:46 | -35.31653 | 149.51307 | 32291 ft | 416 kts | 229° |
| 2026-04-20 05:47 | -35.35025 | 149.45524 | 32288 ft | 417 kts | 229° |
| 2026-04-20 05:47 | -35.38375 | 149.39769 | 32287 ft | 417 kts | 229° |
| 2026-04-20 05:48 | -35.41751 | 149.33960 | 32288 ft | 418 kts | 229° |
| 2026-04-20 05:48 | -35.45125 | 149.28144 | 32286 ft | 418 kts | 229° |
| 2026-04-20 05:49 | -35.48495 | 149.22326 | 32288 ft | 418 kts | 229° |
| 2026-04-20 05:49 | -35.51843 | 149.16535 | 32288 ft | 418 kts | 229° |
| 2026-04-20 05:50 | -35.55212 | 149.10699 | 32289 ft | 418 kts | 229° |
| 2026-04-20 05:50 | -35.58572 | 149.04869 | 32278 ft | 417 kts | 229° |
| 2026-04-20 05:51 | -35.61850 | 148.99170 | 32271 ft | 418 kts | 229° |
| 2026-04-20 05:51 | -35.65208 | 148.93324 | 32274 ft | 417 kts | 229° |
| 2026-04-20 05:52 | -35.68542 | 148.87511 | 32272 ft | 417 kts | 229° |
| 2026-04-20 05:52 | -35.71883 | 148.81674 | 32287 ft | 416 kts | 229° |
| 2026-04-20 05:53 | -35.75214 | 148.75842 | 32298 ft | 416 kts | 229° |
| 2026-04-20 05:53 | -35.78533 | 148.70029 | 32281 ft | 416 kts | 229° |
| 2026-04-20 05:54 | -35.81864 | 148.64180 | 32284 ft | 416 kts | 229° |
| 2026-04-20 05:54 | -35.85163 | 148.58378 | 32282 ft | 416 kts | 229° |
| 2026-04-20 05:55 | -35.88479 | 148.52535 | 32290 ft | 415 kts | 229° |
| 2026-04-20 05:55 | -35.91784 | 148.46674 | 32262 ft | 416 kts | 229° |
| 2026-04-20 05:56 | -35.95084 | 148.40799 | 32282 ft | 416 kts | 230° |
| 2026-04-20 05:56 | -35.98385 | 148.34913 | 32261 ft | 417 kts | 230° |
| 2026-04-20 05:57 | -36.01662 | 148.29069 | 32289 ft | 415 kts | 229° |
| 2026-04-20 05:57 | -36.04953 | 148.23182 | 32285 ft | 416 kts | 230° |
| 2026-04-20 05:58 | -36.08214 | 148.17335 | 32263 ft | 415 kts | 230° |
| 2026-04-20 05:58 | -36.11498 | 148.11447 | 32263 ft | 415 kts | 230° |
| 2026-04-20 05:59 | -36.14785 | 148.05561 | 32271 ft | 415 kts | 230° |
| 2026-04-20 05:59 | -36.18014 | 147.99781 | 32248 ft | 416 kts | 229° |
| 2026-04-20 06:00 | -36.21309 | 147.93885 | 32264 ft | 416 kts | 230° |
| 2026-04-20 06:00 | -36.24578 | 147.87994 | 32261 ft | 417 kts | 230° |
| 2026-04-20 06:01 | -36.27870 | 147.82062 | 32260 ft | 418 kts | 230° |
| 2026-04-20 06:01 | -36.31168 | 147.76114 | 32266 ft | 418 kts | 230° |
| 2026-04-20 06:02 | -36.34449 | 147.70185 | 32260 ft | 419 kts | 230° |
| 2026-04-20 06:02 | -36.37742 | 147.64212 | 32250 ft | 418 kts | 230° |
| 2026-04-20 06:03 | -36.41022 | 147.58249 | 32270 ft | 417 kts | 230° |
| 2026-04-20 06:03 | -36.44292 | 147.52292 | 32259 ft | 416 kts | 230° |
| 2026-04-20 06:04 | -36.47550 | 147.46354 | 32266 ft | 415 kts | 231° |
| 2026-04-20 06:04 | -36.50779 | 147.40455 | 32272 ft | 415 kts | 230° |
| 2026-04-20 06:05 | -36.54026 | 147.34515 | 32267 ft | 415 kts | 231° |
| 2026-04-20 06:05 | -36.57272 | 147.28562 | 32263 ft | 415 kts | 231° |
| 2026-04-20 06:06 | -36.60493 | 147.22631 | 32259 ft | 416 kts | 231° |
| 2026-04-20 06:06 | -36.63740 | 147.16672 | 32265 ft | 416 kts | 231° |
| 2026-04-20 06:07 | -36.66974 | 147.10715 | 32238 ft | 417 kts | 231° |
| 2026-04-20 06:07 | -36.70230 | 147.04704 | 32266 ft | 416 kts | 231° |
| 2026-04-20 06:08 | -36.73411 | 146.98831 | 32263 ft | 417 kts | 231° |
| 2026-04-20 06:08 | -36.76664 | 146.92819 | 32273 ft | 417 kts | 231° |
| 2026-04-20 06:09 | -36.79887 | 146.86852 | 32272 ft | 417 kts | 231° |
| 2026-04-20 06:09 | -36.81498 | 146.83861 | 32057 ft | 412 kts | 232° |
| 2026-04-20 06:09 | -36.83088 | 146.80905 | 31740 ft | 404 kts | 232° |
| 2026-04-20 06:10 | -36.84645 | 146.78008 | 31329 ft | 399 kts | 232° |
| 2026-04-20 06:10 | -36.86188 | 146.75139 | 30896 ft | 395 kts | 232° |
| 2026-04-20 06:10 | -36.87695 | 146.72338 | 30470 ft | 391 kts | 232° |
| 2026-04-20 06:10 | -36.89214 | 146.69522 | 30006 ft | 387 kts | 232° |
| 2026-04-20 06:11 | -36.90705 | 146.66739 | 29542 ft | 383 kts | 232° |
| 2026-04-20 06:11 | -36.92174 | 146.63986 | 29101 ft | 379 kts | 232° |
| 2026-04-20 06:11 | -36.93632 | 146.61263 | 28661 ft | 374 kts | 232° |
| 2026-04-20 06:11 | -36.95060 | 146.58595 | 28251 ft | 371 kts | 232° |
| 2026-04-20 06:12 | -36.96493 | 146.55918 | 27828 ft | 368 kts | 232° |
| 2026-04-20 06:12 | -36.97915 | 146.53259 | 27404 ft | 368 kts | 232° |
| 2026-04-20 06:12 | -36.99352 | 146.50573 | 27000 ft | 375 kts | 232° |
| 2026-04-20 06:12 | -37.00809 | 146.47845 | 26570 ft | 378 kts | 232° |
| 2026-04-20 06:13 | -37.02270 | 146.45103 | 26118 ft | 376 kts | 232° |
| 2026-04-20 06:13 | -37.03694 | 146.42422 | 25707 ft | 372 kts | 232° |
| 2026-04-20 06:13 | -37.05126 | 146.39736 | 25286 ft | 369 kts | 232° |
| 2026-04-20 06:13 | -37.06543 | 146.37069 | 24865 ft | 366 kts | 232° |
| 2026-04-20 06:14 | -37.07951 | 146.34417 | 24421 ft | 365 kts | 232° |
| 2026-04-20 06:14 | -37.09375 | 146.31735 | 23716 ft | 371 kts | 232° |
| 2026-04-20 06:14 | -37.10803 | 146.29037 | 23150 ft | 370 kts | 232° |
| 2026-04-20 06:14 | -37.12201 | 146.26394 | 22718 ft | 367 kts | 233° |
| 2026-04-20 06:15 | -37.13604 | 146.23736 | 22296 ft | 363 kts | 233° |
| 2026-04-20 06:15 | -37.14992 | 146.21106 | 21891 ft | 359 kts | 233° |
| 2026-04-20 06:15 | -37.16366 | 146.18501 | 21488 ft | 356 kts | 233° |
| 2026-04-20 06:15 | -37.17722 | 146.15928 | 21091 ft | 352 kts | 233° |
| 2026-04-20 06:16 | -37.19067 | 146.13375 | 20702 ft | 348 kts | 233° |
| 2026-04-20 06:16 | -37.20383 | 146.10875 | 20321 ft | 345 kts | 234° |
| 2026-04-20 06:16 | -37.21705 | 146.08363 | 19938 ft | 342 kts | 234° |
| 2026-04-20 06:16 | -37.23012 | 146.05876 | 19562 ft | 340 kts | 234° |
| 2026-04-20 06:17 | -37.24309 | 146.03406 | 19182 ft | 338 kts | 234° |
| 2026-04-20 06:17 | -37.25602 | 146.00943 | 18802 ft | 336 kts | 234° |
| 2026-04-20 06:17 | -37.26848 | 145.98568 | 18428 ft | 333 kts | 235° |
| 2026-04-20 06:17 | -37.28105 | 145.96170 | 18003 ft | 332 kts | 235° |
| 2026-04-20 06:18 | -37.29372 | 145.93751 | 17600 ft | 329 kts | 235° |
| 2026-04-20 06:18 | -37.30629 | 145.91349 | 17222 ft | 326 kts | 235° |
| 2026-04-20 06:18 | -37.31867 | 145.88990 | 16959 ft | 321 kts | 235° |
| 2026-04-20 06:18 | -37.33092 | 145.86661 | 16608 ft | 318 kts | 235° |
| 2026-04-20 06:19 | -37.34310 | 145.84346 | 16233 ft | 316 kts | 236° |
| 2026-04-20 06:19 | -37.35526 | 145.82030 | 15881 ft | 318 kts | 235° |
| 2026-04-20 06:19 | -37.36731 | 145.79730 | 15529 ft | 319 kts | 236° |
| 2026-04-20 06:19 | -37.37957 | 145.77392 | 15160 ft | 322 kts | 235° |
| 2026-04-20 06:20 | -37.39196 | 145.75026 | 14785 ft | 324 kts | 236° |
| 2026-04-20 06:20 | -37.40431 | 145.72668 | 14415 ft | 323 kts | 236° |
| 2026-04-20 06:20 | -37.41665 | 145.70308 | 14045 ft | 321 kts | 236° |
| 2026-04-20 06:20 | -37.42888 | 145.67967 | 13631 ft | 320 kts | 236° |
| 2026-04-20 06:21 | -37.44105 | 145.65631 | 13244 ft | 317 kts | 237° |
| 2026-04-20 06:21 | -37.44950 | 145.63087 | 12852 ft | 317 kts | 257° |
| 2026-04-20 06:21 | -37.45121 | 145.60323 | 12498 ft | 317 kts | 268° |
| 2026-04-20 06:21 | -37.45080 | 145.57550 | 12113 ft | 316 kts | 270° |
| 2026-04-20 06:22 | -37.45014 | 145.54794 | 11729 ft | 314 kts | 270° |
| 2026-04-20 06:22 | -37.44957 | 145.52089 | 11387 ft | 312 kts | 270° |
| 2026-04-20 06:22 | -37.44914 | 145.49366 | 11034 ft | 310 kts | 270° |
| 2026-04-20 06:22 | -37.44879 | 145.46663 | 10801 ft | 304 kts | 270° |
| 2026-04-20 06:23 | -37.44848 | 145.43992 | 10442 ft | 303 kts | 270° |
| 2026-04-20 06:23 | -37.44817 | 145.41365 | 10252 ft | 295 kts | 270° |
| 2026-04-20 06:23 | -37.44786 | 145.38832 | 10101 ft | 282 kts | 270° |
| 2026-04-20 06:23 | -37.44756 | 145.36378 | 9948 ft | 279 kts | 270° |
| 2026-04-20 06:24 | -37.44727 | 145.33957 | 9646 ft | 280 kts | 270° |
| 2026-04-20 06:24 | -37.44696 | 145.31514 | 9358 ft | 278 kts | 270° |
| 2026-04-20 06:24 | -37.44665 | 145.29082 | 9079 ft | 277 kts | 270° |
| 2026-04-20 06:24 | -37.44634 | 145.26659 | 8785 ft | 276 kts | 270° |
| 2026-04-20 06:25 | -37.44603 | 145.24251 | 8501 ft | 274 kts | 270° |
| 2026-04-20 06:25 | -37.44571 | 145.21855 | 8232 ft | 272 kts | 270° |
| 2026-04-20 06:25 | -37.44539 | 145.19481 | 7952 ft | 270 kts | 270° |
| 2026-04-20 06:25 | -37.44506 | 145.17120 | 7688 ft | 268 kts | 270° |
| 2026-04-20 06:26 | -37.44473 | 145.14775 | 7406 ft | 267 kts | 270° |
| 2026-04-20 06:26 | -37.44440 | 145.12470 | 7144 ft | 265 kts | 271° |
| 2026-04-20 06:26 | -37.44408 | 145.10165 | 6884 ft | 264 kts | 271° |
| 2026-04-20 06:26 | -37.44374 | 145.07864 | 6606 ft | 257 kts | 271° |
| 2026-04-20 06:27 | -37.44352 | 145.06394 | 6421 ft | 251 kts | 271° |
| 2026-04-20 06:27 | -37.44319 | 145.04244 | 6276 ft | 241 kts | 271° |
| 2026-04-20 06:27 | -37.44288 | 145.02164 | 6158 ft | 235 kts | 271° |
| 2026-04-20 06:27 | -37.44256 | 145.00085 | 5996 ft | 242 kts | 271° |
| 2026-04-20 06:28 | -37.44224 | 144.98001 | 5717 ft | 247 kts | 271° |
| 2026-04-20 06:28 | -37.44190 | 144.95844 | 5335 ft | 242 kts | 272° |
| 2026-04-20 06:28 | -37.44196 | 144.93799 | 4942 ft | 232 kts | 265° |
| 2026-04-20 06:28 | -37.44454 | 144.91829 | 4559 ft | 224 kts | 259° |
| 2026-04-20 06:29 | -37.44752 | 144.89934 | 4185 ft | 217 kts | 259° |
| 2026-04-20 06:29 | -37.45030 | 144.88095 | 3834 ft | 209 kts | 259° |
| 2026-04-20 06:29 | -37.45289 | 144.86326 | 3529 ft | 202 kts | 258° |
| 2026-04-20 06:29 | -37.45536 | 144.84610 | 3220 ft | 198 kts | 257° |
| 2026-04-20 06:30 | -37.45778 | 144.82915 | 3044 ft | 198 kts | 259° |
| 2026-04-20 06:30 | -37.46155 | 144.81263 | 2990 ft | 194 kts | 235° |
| 2026-04-20 06:30 | -37.47181 | 144.80340 | 3004 ft | 184 kts | 187° |
| 2026-04-20 06:30 | -37.48473 | 144.80437 | 3001 ft | 190 kts | 173° |
| 2026-04-20 06:31 | -37.49773 | 144.80606 | 2987 ft | 188 kts | 173° |
| 2026-04-20 06:31 | -37.51042 | 144.80789 | 2989 ft | 174 kts | 171° |
| 2026-04-20 06:31 | -37.52179 | 144.81019 | 2958 ft | 162 kts | 169° |
| 2026-04-20 06:31 | -37.53301 | 144.81239 | 2806 ft | 165 kts | 171° |
| 2026-04-20 06:32 | -37.54436 | 144.81452 | 2595 ft | 162 kts | 171° |
| 2026-04-20 06:32 | -37.55521 | 144.81654 | 2401 ft | 152 kts | 172° |
| 2026-04-20 06:32 | -37.56544 | 144.81802 | 2170 ft | 148 kts | 170° |
| 2026-04-20 06:32 | -37.57548 | 144.82025 | 1987 ft | 147 kts | 170° |
| 2026-04-20 06:33 | -37.58564 | 144.82228 | 1771 ft | 146 kts | 171° |
| 2026-04-20 06:33 | -37.59574 | 144.82408 | 1648 ft | 148 kts | 172° |
| 2026-04-20 06:33 | -37.60612 | 144.82604 | 1450 ft | 151 kts | 168° |
| 2026-04-20 06:33 | -37.61668 | 144.82809 | 1274 ft | 155 kts | 172° |
| 2026-04-20 06:34 | -37.62723 | 144.83003 | 1033 ft | 152 kts | 171° |
| 2026-04-20 06:34 | -37.63755 | 144.83196 | 803 ft | 147 kts | 173° |
| 2026-04-20 06:34 | -37.65757 | 144.83575 | 429 ft | 141 kts | 170° |
| 2026-04-20 06:35 | -37.66626 | 144.83735 | 397 ft | 112 kts | 172° |
| 2026-04-20 06:35 | -37.67277 | 144.83856 | 375 ft | 76 kts | 172° |
| 2026-04-20 06:35 | -37.67659 | 144.83930 | 365 ft | 26 kts | 172° |
| 2026-04-20 06:35 | -37.67810 | 144.83962 | 356 ft | 16 kts | 158° |
| 2026-04-20 06:36 | -37.67874 | 144.84062 | 357 ft | 15 kts | 100° |
| 2026-04-20 06:36 | -37.67870 | 144.84138 | 364 ft | 4 kts | 81° |
| 2026-04-20 06:36 | -37.67868 | 144.84149 | 362 ft | 1 kts | 72° |
| 2026-04-20 06:36 | -37.67861 | 144.84159 | 360 ft | 3 kts | 43° |
| 2026-04-20 06:37 | -37.67831 | 144.84174 | 363 ft | 7 kts | 5° |
| 2026-04-20 06:37 | -37.67765 | 144.84165 | 364 ft | 13 kts | 351° |
| 2026-04-20 06:37 | -37.67681 | 144.84149 | 365 ft | 12 kts | 352° |
| 2026-04-20 06:37 | -37.67603 | 144.84135 | 367 ft | 11 kts | 351° |
| 2026-04-20 06:38 | -37.67527 | 144.84138 | 369 ft | 11 kts | 27° |
| 2026-04-20 06:38 | -37.67494 | 144.84219 | 372 ft | 11 kts | 70° |
| 2026-04-20 06:38 | -37.67445 | 144.84285 | 375 ft | 10 kts | 31° |
| 2026-04-20 06:38 | -37.67376 | 144.84301 | 377 ft | 10 kts | 355° |
| 2026-04-20 06:39 | -37.67303 | 144.84288 | 379 ft | 11 kts | 351° |
| 2026-04-20 06:39 | -37.67216 | 144.84272 | 380 ft | 14 kts | 352° |
| 2026-04-20 06:39 | -37.67104 | 144.84252 | 383 ft | 18 kts | 351° |
| 2026-04-20 06:39 | -37.66969 | 144.84226 | 386 ft | 21 kts | 352° |
| 2026-04-20 06:40 | -37.66826 | 144.84199 | 390 ft | 20 kts | 352° |
| 2026-04-20 06:40 | -37.66720 | 144.84200 | 390 ft | 14 kts | 31° |
| 2026-04-20 06:40 | -37.66689 | 144.84309 | 392 ft | 13 kts | 82° |
| 2026-04-20 06:40 | -37.66675 | 144.84427 | 395 ft | 14 kts | 82° |
| 2026-04-20 06:41 | -37.66660 | 144.84556 | 394 ft | 16 kts | 82° |
| 2026-04-20 06:41 | -37.66644 | 144.84691 | 400 ft | 14 kts | 81° |
| 2026-04-20 06:41 | -37.66601 | 144.84793 | 403 ft | 14 kts | 28° |
| 2026-04-20 06:41 | -37.66545 | 144.84876 | 402 ft | 13 kts | 80° |
| 2026-04-20 06:42 | -37.66532 | 144.84987 | 403 ft | 13 kts | 84° |
| 2026-04-20 06:42 | -37.66582 | 144.85060 | 403 ft | 13 kts | 172° |
| 2026-04-20 06:42 | -37.66678 | 144.85077 | 399 ft | 15 kts | 171° |
| 2026-04-20 06:42 | -37.66753 | 144.85075 | 398 ft | 8 kts | 235° |
| 2026-04-20 06:43 | -37.66763 | 144.85030 | 392 ft | 1 kts | 259° |
| 2026-04-20 06:43 | -37.66764 | 144.85018 | 393 ft | 0 kts | 262° |